createdAt,value
2019-05-11T00:01:52.507Z,9.23
2019-05-11T00:04:20.784Z,8.27
2019-05-11T00:06:49.061Z,8.67
2019-05-11T00:09:17.341Z,7.77
2019-05-11T00:11:45.646Z,8.57
2019-05-11T00:14:13.939Z,9.03
2019-05-11T00:16:42.196Z,9.33
2019-05-11T00:19:10.483Z,9.37
2019-05-11T00:21:38.744Z,8.60
2019-05-11T00:24:07.106Z,9.43
2019-05-11T00:26:35.362Z,9.67
2019-05-11T00:29:03.639Z,9.77
2019-05-11T00:31:31.885Z,9.27
2019-05-11T00:34:00.171Z,8.77
2019-05-11T00:36:28.434Z,8.57
2019-05-11T00:38:56.739Z,8.10
2019-05-11T00:41:24.974Z,8.07
2019-05-11T00:43:53.245Z,8.57
2019-05-11T00:46:21.529Z,7.57
2019-05-11T00:48:49.776Z,7.70
2019-05-11T00:51:18.090Z,7.07
2019-05-11T00:53:46.340Z,8.47
2019-05-11T00:56:14.620Z,8.03
2019-05-11T00:58:42.898Z,8.33
2019-05-11T01:01:11.456Z,8.03
2019-05-11T01:03:39.719Z,7.93
2019-05-11T01:06:08.038Z,7.67
2019-05-11T01:08:36.374Z,7.73
2019-05-11T01:11:04.669Z,7.60
2019-05-11T01:13:32.949Z,7.70
2019-05-11T01:16:01.311Z,7.97
2019-05-11T01:18:29.579Z,6.57
2019-05-11T01:20:57.861Z,7.90
2019-05-11T01:23:26.110Z,7.63
2019-05-11T01:25:54.461Z,7.53
2019-05-11T01:28:22.711Z,6.50
2019-05-11T01:30:51.002Z,7.63
2019-05-11T01:33:19.264Z,7.67
2019-05-11T01:35:50.994Z,7.30
2019-05-11T01:38:17.520Z,8.37
2019-05-11T01:40:58.219Z,8.40
2019-05-11T01:43:15.773Z,7.70
2019-05-11T01:45:44.049Z,7.47
2019-05-11T01:48:12.429Z,7.03
2019-05-11T01:50:40.788Z,8.40
2019-05-11T01:53:09.129Z,7.60
2019-05-11T01:55:37.403Z,8.57
2019-05-11T01:58:05.739Z,7.67
2019-05-11T02:00:34.011Z,7.43
2019-05-11T02:03:02.269Z,7.63
2019-05-11T02:05:31.213Z,7.20
2019-05-11T02:08:00.310Z,7.20
2019-05-11T02:10:28.629Z,8.33
2019-05-11T02:12:56.894Z,7.80
2019-05-11T02:15:25.141Z,7.87
2019-05-11T02:17:53.433Z,7.50
2019-05-11T02:20:21.679Z,8.63
2019-05-11T02:22:49.971Z,6.93
2019-05-11T02:25:18.235Z,7.33
2019-05-11T02:27:46.509Z,7.30
2019-05-11T02:30:14.797Z,7.33
2019-05-11T02:32:43.169Z,7.17
2019-05-11T02:35:11.493Z,7.17
2019-05-11T02:37:39.741Z,7.60
2019-05-11T02:40:08.026Z,6.53
2019-05-11T02:42:36.354Z,6.97
2019-05-11T02:45:06.141Z,6.93
2019-05-11T02:47:34.473Z,7.30
2019-05-11T02:50:02.823Z,7.33
2019-05-11T02:52:31.078Z,7.13
2019-05-11T02:54:59.691Z,7.03
2019-05-11T02:57:27.955Z,7.97
2019-05-11T02:59:56.312Z,7.30
2019-05-11T03:02:24.571Z,7.27
2019-05-11T03:04:52.930Z,7.30
2019-05-11T03:07:21.335Z,7.60
2019-05-11T03:09:49.673Z,7.70
2019-05-11T03:12:17.976Z,7.50
2019-05-11T03:14:46.321Z,7.30
2019-05-11T03:17:16.228Z,8.40
2019-05-11T03:19:44.510Z,7.90
2019-05-11T03:22:12.915Z,7.27
2019-05-11T03:24:41.205Z,6.80
2019-05-11T03:27:09.525Z,7.77
2019-05-11T03:29:37.812Z,8.20
2019-05-11T03:32:06.069Z,7.20
2019-05-11T03:34:34.341Z,7.27
2019-05-11T03:37:02.700Z,7.13
2019-05-11T03:39:30.943Z,7.13
2019-05-11T03:42:13.924Z,8.27
2019-05-11T03:44:29.210Z,7.30
2019-05-11T03:46:57.487Z,7.30
2019-05-11T03:49:25.767Z,7.10
2019-05-11T03:51:54.047Z,7.80
2019-05-11T03:54:22.309Z,7.83
2019-05-11T03:56:50.599Z,8.60
2019-05-11T03:59:18.849Z,8.03
2019-05-11T04:01:47.121Z,7.77
2019-05-11T04:04:16.629Z,7.77
2019-05-11T04:06:45.121Z,8.13
2019-05-11T04:09:13.474Z,7.83
2019-05-11T04:11:41.820Z,8.27
2019-05-11T04:14:10.161Z,7.97
2019-05-11T04:16:38.430Z,9.03
2019-05-11T04:19:06.703Z,7.97
2019-05-11T04:21:35.000Z,7.93
2019-05-11T04:24:03.312Z,8.17
2019-05-11T04:26:31.590Z,8.30
2019-05-11T04:28:59.848Z,8.00
2019-05-11T04:31:28.139Z,7.63
2019-05-11T04:33:56.404Z,8.87
2019-05-11T04:36:24.710Z,8.33
2019-05-11T04:38:52.955Z,8.27
2019-05-11T04:41:21.210Z,7.97
2019-05-11T04:43:49.479Z,7.80
2019-05-11T04:46:17.735Z,8.53
2019-05-11T04:48:46.015Z,8.27
2019-05-11T04:51:14.294Z,8.00
2019-05-11T04:53:42.639Z,8.20
2019-05-11T04:56:10.894Z,7.50
2019-05-11T04:58:39.164Z,7.57
2019-05-11T05:01:07.406Z,7.40
2019-05-11T05:03:40.679Z,7.43
2019-05-11T05:06:22.296Z,7.60
2019-05-11T05:08:35.746Z,8.03
2019-05-11T05:11:04.008Z,7.57
2019-05-11T05:13:32.273Z,6.70
2019-05-11T05:16:00.543Z,7.23
2019-05-11T05:18:28.824Z,7.97
2019-05-11T05:20:57.101Z,7.97
2019-05-11T05:23:25.470Z,8.03
2019-05-11T05:25:53.793Z,7.17
2019-05-11T05:28:22.131Z,8.03
2019-05-11T05:30:50.379Z,7.83
2019-05-11T05:33:18.668Z,7.60
2019-05-11T05:35:46.929Z,7.63
2019-05-11T05:38:15.255Z,7.83
2019-05-11T05:40:43.675Z,7.47
2019-05-11T05:43:25.580Z,7.80
2019-05-11T05:45:42.051Z,6.77
2019-05-11T05:48:10.334Z,7.50
2019-05-11T05:50:38.656Z,7.53
2019-05-11T05:53:06.914Z,7.53
2019-05-11T05:55:35.204Z,7.40
2019-05-11T05:58:03.453Z,7.90
2019-05-11T06:00:31.756Z,8.57
2019-05-11T06:03:00.009Z,8.67
2019-05-11T06:05:28.349Z,8.83
2019-05-11T06:07:56.599Z,8.90
2019-05-11T06:10:24.875Z,8.80
2019-05-11T06:12:53.140Z,8.73
2019-05-11T06:15:21.437Z,8.27
2019-05-11T06:17:49.773Z,8.90
2019-05-11T06:20:18.123Z,8.83
2019-05-11T06:22:46.471Z,9.53
2019-05-11T06:25:14.782Z,8.33
2019-05-11T06:27:43.073Z,8.20
2019-05-11T06:30:11.388Z,8.40
2019-05-11T06:32:39.690Z,7.80
2019-05-11T06:35:08.007Z,8.53
2019-05-11T06:37:36.299Z,7.53
2019-05-11T06:40:07.519Z,8.77
2019-05-11T06:42:35.817Z,8.97
2019-05-11T06:45:05.614Z,8.53
2019-05-11T06:47:33.905Z,7.83
2019-05-11T06:50:02.167Z,8.23
2019-05-11T06:52:30.463Z,7.73
2019-05-11T06:54:58.726Z,9.27
2019-05-11T06:57:27.005Z,8.13
2019-05-11T06:59:55.255Z,8.97
2019-05-11T07:02:23.544Z,8.50
2019-05-11T07:04:51.818Z,8.40
2019-05-11T07:07:20.090Z,8.20
2019-05-11T07:09:48.340Z,8.13
2019-05-11T07:12:16.770Z,7.93
2019-05-11T07:14:45.262Z,7.67
2019-05-11T07:17:13.550Z,9.67
2019-05-11T07:19:41.798Z,8.87
2019-05-11T07:22:10.083Z,8.57
2019-05-11T07:24:38.354Z,7.93
2019-05-11T07:27:06.690Z,7.57
2019-05-11T07:29:34.949Z,6.97
2019-05-11T07:32:10.213Z,5.77
2019-05-11T07:34:33.281Z,5.23
2019-05-11T07:37:01.540Z,5.23
2019-05-11T07:39:29.824Z,4.87
2019-05-11T07:41:58.562Z,4.67
2019-05-11T07:44:35.925Z,4.20
2019-05-11T07:46:58.705Z,4.30
2019-05-11T07:49:29.045Z,3.77
2019-05-11T07:51:58.726Z,4.60
2019-05-11T07:54:28.099Z,3.97
2019-05-11T07:56:58.400Z,4.60
2019-05-11T07:59:28.743Z,4.10
2019-05-11T08:01:58.280Z,4.30
2019-05-11T08:04:28.601Z,4.47
2019-05-11T08:06:58.403Z,4.10
2019-05-11T08:09:27.774Z,4.00
2019-05-11T08:11:58.374Z,4.63
2019-05-11T08:14:28.590Z,5.07
2019-05-11T08:16:59.151Z,4.70
2019-05-11T08:19:28.340Z,5.17
2019-05-11T08:21:58.257Z,4.90
2019-05-11T08:24:28.418Z,5.10
2019-05-11T08:26:58.222Z,5.53
2019-05-11T08:29:27.855Z,5.63
2019-05-11T08:31:57.926Z,5.67
2019-05-11T08:34:28.614Z,5.50
2019-05-11T08:36:58.450Z,5.50
2019-05-11T08:39:28.654Z,5.63
2019-05-11T08:41:58.792Z,5.93
2019-05-11T08:44:28.742Z,5.13
2019-05-11T08:46:58.240Z,6.00
2019-05-11T08:49:28.749Z,6.30
2019-05-11T08:51:57.870Z,6.40
2019-05-11T08:54:28.662Z,6.20
2019-05-11T08:56:58.534Z,6.77
2019-05-11T08:59:27.874Z,6.70
2019-05-11T09:01:58.555Z,5.93
2019-05-11T09:04:28.635Z,6.73
2019-05-11T09:06:58.450Z,6.40
2019-05-11T09:09:28.459Z,6.50
2019-05-11T09:11:58.672Z,6.63
2019-05-11T09:14:28.349Z,6.10
2019-05-11T09:16:57.772Z,6.47
2019-05-11T09:19:28.470Z,7.30
2019-05-11T09:21:58.800Z,8.13
2019-05-11T09:24:28.230Z,8.40
2019-05-11T09:26:58.539Z,9.10
2019-05-11T09:29:28.240Z,8.87
2019-05-11T09:31:58.231Z,9.67
2019-05-11T09:34:28.825Z,10.23
2019-05-11T09:36:58.690Z,9.67
2019-05-11T09:39:28.107Z,10.47
2019-05-11T09:41:58.507Z,9.93
2019-05-11T09:44:28.626Z,10.80
2019-05-11T09:46:59.985Z,10.70
2019-05-11T09:49:42.942Z,10.83
2019-05-11T09:51:58.720Z,10.33
2019-05-11T09:54:28.747Z,10.00
2019-05-11T09:56:57.836Z,9.50
2019-05-11T09:59:28.188Z,10.60
2019-05-11T10:01:58.761Z,9.87
2019-05-11T10:04:28.610Z,9.00
2019-05-11T10:06:58.385Z,10.03
2019-05-11T10:09:27.998Z,9.90
2019-05-11T10:11:58.443Z,10.40
2019-05-11T10:14:28.670Z,9.87
2019-05-11T10:16:58.432Z,9.60
2019-05-11T10:19:28.409Z,10.90
2019-05-11T10:21:58.028Z,10.30
2019-05-11T10:24:28.383Z,9.43
2019-05-11T10:26:57.851Z,10.30
2019-05-11T10:29:28.710Z,9.80
2019-05-11T10:31:58.482Z,10.67
2019-05-11T10:34:28.586Z,11.40
2019-05-11T10:36:57.983Z,10.47
2019-05-11T10:39:27.921Z,11.57
2019-05-11T10:41:58.425Z,12.80
2019-05-11T10:44:28.102Z,13.10
2019-05-11T10:46:58.717Z,13.37
2019-05-11T10:49:28.652Z,13.27
2019-05-11T10:51:58.724Z,12.83
2019-05-11T10:54:28.827Z,12.63
2019-05-11T10:56:57.896Z,12.90
2019-05-11T10:59:28.298Z,12.27
2019-05-11T11:01:58.786Z,12.63
2019-05-11T11:04:28.598Z,13.07
2019-05-11T11:06:58.935Z,13.50
2019-05-11T11:09:28.175Z,13.20
2019-05-11T11:11:57.942Z,12.07
2019-05-11T11:14:28.451Z,12.43
2019-05-11T11:16:58.431Z,12.30
2019-05-11T11:19:28.742Z,11.00
2019-05-11T11:22:07.816Z,11.87
2019-05-11T11:24:28.532Z,11.03
2019-05-11T11:26:57.602Z,11.03
2019-05-11T11:29:28.566Z,11.53
2019-05-11T11:31:56.056Z,11.63
2019-05-11T11:34:24.340Z,12.07
2019-05-11T11:36:52.770Z,10.63
2019-05-11T11:39:21.083Z,8.07
2019-05-11T11:41:49.385Z,8.50
2019-05-11T11:44:18.480Z,7.57
2019-05-11T11:46:54.669Z,7.37
2019-05-11T11:49:18.734Z,6.87
2019-05-11T11:51:48.435Z,5.77
2019-05-11T11:54:18.226Z,6.40
2019-05-11T11:56:48.587Z,7.00
2019-05-11T11:59:17.889Z,8.03
2019-05-11T12:01:48.527Z,8.13
2019-05-11T12:04:18.610Z,9.03
2019-05-11T12:06:46.328Z,9.40
2019-05-11T12:09:14.628Z,10.00
2019-05-11T12:11:42.897Z,10.60
2019-05-11T12:14:11.187Z,10.97
2019-05-11T12:16:39.462Z,10.93
2019-05-11T12:19:08.338Z,12.27
2019-05-11T12:21:37.932Z,14.43
2019-05-11T12:24:08.260Z,15.60
2019-05-11T12:26:38.656Z,17.53
2019-05-11T12:29:08.163Z,17.03
2019-05-11T12:31:37.924Z,18.40
2019-05-11T12:34:08.522Z,19.80
2019-05-11T12:36:38.517Z,19.37
2019-05-11T12:39:08.349Z,19.57
2019-05-11T12:41:38.726Z,19.43
2019-05-11T12:44:08.280Z,20.30
2019-05-11T12:46:39.315Z,20.17
2019-05-11T12:49:07.845Z,18.97
2019-05-11T12:51:38.242Z,19.33
2019-05-11T12:54:08.306Z,19.53
2019-05-11T12:56:38.347Z,20.23
2019-05-11T12:59:08.238Z,21.37
2019-05-11T13:01:38.203Z,20.57
2019-05-11T13:04:08.653Z,20.17
2019-05-11T13:06:38.329Z,19.57
2019-05-11T13:09:07.829Z,20.53
2019-05-11T13:11:37.968Z,18.23
2019-05-11T13:14:08.091Z,15.77
2019-05-11T13:16:37.861Z,17.57
2019-05-11T13:19:08.353Z,15.30
2019-05-11T13:21:38.183Z,16.17
2019-05-11T13:24:08.391Z,13.80
2019-05-11T13:26:38.076Z,14.43
2019-05-11T13:29:07.755Z,14.30
2019-05-11T13:31:38.204Z,12.67
2019-05-11T13:34:08.156Z,12.90
2019-05-11T13:36:38.113Z,12.63
2019-05-11T13:39:08.845Z,12.93
2019-05-11T13:41:38.297Z,11.23
2019-05-11T13:44:08.006Z,12.90
2019-05-11T13:46:38.692Z,12.47
2019-05-11T13:49:08.412Z,13.83
2019-05-11T13:51:38.593Z,12.93
2019-05-11T13:54:07.899Z,12.77
2019-05-11T13:56:37.938Z,12.17
2019-05-11T13:59:10.752Z,12.73
2019-05-11T14:01:39.334Z,11.70
2019-05-11T14:04:08.563Z,11.40
2019-05-11T14:06:37.851Z,11.43
2019-05-11T14:09:07.886Z,10.43
2019-05-11T14:11:38.730Z,10.80
2019-05-11T14:14:07.798Z,9.90
2019-05-11T14:16:37.899Z,9.53
2019-05-11T14:19:08.399Z,9.43
2019-05-11T14:21:38.284Z,8.53
2019-05-11T14:24:07.768Z,8.73
2019-05-11T14:26:38.395Z,9.03
2019-05-11T14:29:07.925Z,9.00
2019-05-11T14:31:37.980Z,7.13
2019-05-11T14:34:08.147Z,7.40
2019-05-11T14:36:38.517Z,7.40
2019-05-11T14:39:08.372Z,6.87
2019-05-11T14:41:38.077Z,8.07
2019-05-11T14:44:08.928Z,7.30
2019-05-11T14:46:38.401Z,6.90
2019-05-11T14:49:07.929Z,7.53
2019-05-11T14:51:38.853Z,6.07
2019-05-11T14:54:08.167Z,6.90
2019-05-11T14:56:38.025Z,6.77
2019-05-11T14:59:08.996Z,6.47
2019-05-11T15:01:38.237Z,7.27
2019-05-11T15:04:08.805Z,6.07
2019-05-11T15:06:38.579Z,6.63
2019-05-11T15:09:07.903Z,6.53
2019-05-11T15:11:38.604Z,6.67
2019-05-11T15:14:08.122Z,6.70
2019-05-11T15:16:38.275Z,7.00
2019-05-11T15:19:08.087Z,6.63
2019-05-11T15:21:38.495Z,7.03
2019-05-11T15:24:08.729Z,7.20
2019-05-11T15:26:38.087Z,6.63
2019-05-11T15:29:08.146Z,6.60
2019-05-11T15:31:38.167Z,6.90
2019-05-11T15:34:08.474Z,7.47
2019-05-11T15:36:38.408Z,7.00
2019-05-11T15:39:07.752Z,6.83
2019-05-11T15:41:38.588Z,8.63
2019-05-11T15:44:11.411Z,10.20
2019-05-11T15:46:38.751Z,7.87
2019-05-11T15:49:08.614Z,6.60
2019-05-11T15:51:38.335Z,7.40
2019-05-11T15:54:07.907Z,8.60
2019-05-11T15:56:38.313Z,7.67
2019-05-11T15:59:08.727Z,8.00
2019-05-11T16:01:38.232Z,7.47
2019-05-11T16:04:08.897Z,8.40
2019-05-11T16:06:36.430Z,8.00
2019-05-11T16:09:08.321Z,6.80
2019-05-11T16:11:38.683Z,7.17
2019-05-11T16:14:08.773Z,7.73
2019-05-11T16:16:38.779Z,7.43
2019-05-11T16:19:13.666Z,6.97
2019-05-11T16:21:38.140Z,7.63
2019-05-11T16:24:07.914Z,8.17
2019-05-11T16:26:36.616Z,7.10
2019-05-11T16:29:04.950Z,7.07
2019-05-11T16:31:33.243Z,6.90
2019-05-11T16:34:02.777Z,7.17
2019-05-11T16:36:31.169Z,7.83
2019-05-11T16:38:59.526Z,7.70
2019-05-11T16:41:29.183Z,7.33
2019-05-11T16:43:58.507Z,5.93
2019-05-11T16:46:28.406Z,6.83
2019-05-11T16:48:57.871Z,7.23
2019-05-11T16:51:28.363Z,7.00
2019-05-11T16:53:58.601Z,6.80
2019-05-11T16:56:26.348Z,7.40
2019-05-11T16:58:55.003Z,7.10
2019-05-11T17:01:23.370Z,6.57
2019-05-11T17:03:51.647Z,7.07
2019-05-11T17:06:19.987Z,6.93
2019-05-11T17:08:48.771Z,6.40
2019-05-11T17:11:18.634Z,6.63
2019-05-11T17:13:48.342Z,6.17
2019-05-11T17:16:17.917Z,6.40
2019-05-11T17:18:48.376Z,5.97
2019-05-11T17:21:18.315Z,6.60
2019-05-11T17:23:48.576Z,6.40
2019-05-11T17:26:18.811Z,6.27
2019-05-11T17:28:48.778Z,6.70
2019-05-11T17:31:18.849Z,6.17
2019-05-11T17:33:47.676Z,5.90
2019-05-11T17:36:18.373Z,6.10
2019-05-11T17:38:47.859Z,6.43
2019-05-11T17:41:16.093Z,6.30
2019-05-11T17:43:44.868Z,6.10
2019-05-11T17:46:13.150Z,6.67
2019-05-11T17:48:41.428Z,6.93
2019-05-11T17:51:20.451Z,7.17
2019-05-11T17:53:39.677Z,7.23
2019-05-11T17:56:07.977Z,7.57
2019-05-11T17:58:37.894Z,6.90
2019-05-11T18:01:09.128Z,7.30
2019-05-11T18:03:38.433Z,6.70
2019-05-11T18:06:08.464Z,7.07
2019-05-11T18:08:36.575Z,6.77
2019-05-11T18:11:05.015Z,7.53
2019-05-11T18:13:33.309Z,7.57
2019-05-11T18:16:01.605Z,6.70
2019-05-11T18:18:29.866Z,7.80
2019-05-11T18:20:58.167Z,7.20
2019-05-11T18:23:28.337Z,8.37
2019-05-11T18:25:56.513Z,9.00
2019-05-11T18:28:24.774Z,8.93
2019-05-11T18:30:53.082Z,8.67
2019-05-11T18:33:21.344Z,8.63
2019-05-11T18:35:49.644Z,8.93
2019-05-11T18:38:17.995Z,9.50
2019-05-11T18:40:48.490Z,9.80
2019-05-11T18:43:18.669Z,10.07
2019-05-11T18:45:48.644Z,9.77
2019-05-11T18:48:18.357Z,10.40
2019-05-11T18:50:48.454Z,9.17
2019-05-11T18:53:18.485Z,10.00
2019-05-11T18:55:48.490Z,10.40
2019-05-11T18:58:18.619Z,10.30
2019-05-11T19:00:48.644Z,10.00
2019-05-11T19:03:19.055Z,10.87
2019-05-11T19:05:48.081Z,10.90
2019-05-11T19:08:18.803Z,11.50
2019-05-11T19:10:48.772Z,11.37
2019-05-11T19:13:16.588Z,11.27
2019-05-11T19:15:44.888Z,13.50
2019-05-11T19:18:13.181Z,12.30
2019-05-11T19:20:45.627Z,12.43
2019-05-11T19:23:11.529Z,12.40
2019-05-11T19:25:39.867Z,12.10
2019-05-11T19:28:08.615Z,12.17
2019-05-11T19:30:38.278Z,12.80
2019-05-11T19:33:10.715Z,12.23
2019-05-11T19:35:37.885Z,13.80
2019-05-11T19:38:08.467Z,23.23
2019-05-11T19:40:38.414Z,13.60
2019-05-11T19:43:08.187Z,12.47
2019-05-11T19:45:38.415Z,13.83
2019-05-11T19:48:08.322Z,12.87
2019-05-11T19:50:38.151Z,13.67
2019-05-11T19:53:08.225Z,13.70
2019-05-11T19:55:36.474Z,22.93
2019-05-11T19:58:04.809Z,15.47
2019-05-11T20:00:33.150Z,13.20
2019-05-11T20:03:01.413Z,12.60
2019-05-11T20:05:29.733Z,12.07
2019-05-11T20:07:58.740Z,15.07
2019-05-11T20:10:27.725Z,14.27
2019-05-11T20:12:58.527Z,15.60
2019-05-11T20:15:26.209Z,16.43
2019-05-11T20:17:54.543Z,14.07
2019-05-11T20:20:22.824Z,15.10
2019-05-11T20:22:51.104Z,15.00
2019-05-11T20:25:19.526Z,13.93
2019-05-11T20:27:49.029Z,12.70
2019-05-11T20:30:18.467Z,13.37
2019-05-11T20:32:48.481Z,12.83
2019-05-11T20:35:17.348Z,15.63
2019-05-11T20:37:45.633Z,14.47
2019-05-11T20:40:13.980Z,14.63
2019-05-11T20:42:42.346Z,13.40
2019-05-11T20:45:10.633Z,14.87
2019-05-11T20:47:39.012Z,14.10
2019-05-11T20:50:07.939Z,13.77
2019-05-11T20:52:38.782Z,14.77
2019-05-11T20:55:08.824Z,12.43
2019-05-11T20:57:39.271Z,13.70
2019-05-11T21:00:08.223Z,14.13
2019-05-11T21:02:38.117Z,12.37
2019-05-11T21:05:09.059Z,10.17
2019-05-11T21:07:38.846Z,11.13
2019-05-11T21:10:08.603Z,11.43
2019-05-11T21:12:38.520Z,12.17
2019-05-11T21:15:10.033Z,11.47
2019-05-11T21:17:38.392Z,10.93
2019-05-11T21:20:10.179Z,10.93
2019-05-11T21:22:40.596Z,9.00
2019-05-11T21:25:09.195Z,4.53
2019-05-11T21:27:38.460Z,7.23
2019-05-11T21:30:10.076Z,7.13
2019-05-11T21:32:39.511Z,6.73
2019-05-11T21:35:08.880Z,8.13
2019-05-11T21:37:38.751Z,8.13
2019-05-11T21:40:08.516Z,7.90
2019-05-11T21:42:39.098Z,7.20
2019-05-11T21:45:09.121Z,5.97
2019-05-11T21:47:38.954Z,7.00
2019-05-11T21:50:08.482Z,7.90
2019-05-11T21:52:38.362Z,7.93
2019-05-11T21:55:09.338Z,7.47
2019-05-11T21:57:37.367Z,7.77
2019-05-11T22:00:08.794Z,7.73
2019-05-11T22:02:38.451Z,7.67
2019-05-11T22:05:07.174Z,7.70
2019-05-11T22:07:35.444Z,7.73
2019-05-11T22:10:08.621Z,4.80
2019-05-11T22:12:38.704Z,4.43
2019-05-11T22:15:09.380Z,5.93
2019-05-11T22:17:39.275Z,4.73
2019-05-11T22:20:08.430Z,5.27
2019-05-11T22:22:38.951Z,5.87
2019-05-11T22:25:07.909Z,5.97
2019-05-11T22:27:38.412Z,6.03
2019-05-11T22:30:08.383Z,6.33
2019-05-11T22:32:38.438Z,5.87
2019-05-11T22:35:08.704Z,6.93
2019-05-11T22:37:38.773Z,7.43
2019-05-11T22:40:08.245Z,6.70
2019-05-11T22:42:36.808Z,6.87
2019-05-11T22:45:08.504Z,6.60
2019-05-11T22:47:39.415Z,6.57
2019-05-11T22:50:10.355Z,6.80
2019-05-11T22:52:40.410Z,5.33
2019-05-11T22:55:11.644Z,7.07
2019-05-11T22:57:38.706Z,7.20
2019-05-11T23:00:08.284Z,7.77
2019-05-11T23:02:38.009Z,7.07
2019-05-11T23:05:08.647Z,6.53
2019-05-11T23:07:41.091Z,6.90
2019-05-11T23:10:08.742Z,6.77
2019-05-11T23:12:38.299Z,6.53
2019-05-11T23:15:12.392Z,6.70
2019-05-11T23:17:40.874Z,6.80
2019-05-11T23:20:09.323Z,6.33
2019-05-11T23:22:57.444Z,6.10
2019-05-11T23:25:19.791Z,5.73
2019-05-11T23:27:48.782Z,6.13
2019-05-11T23:30:19.706Z,6.23
2019-05-11T23:32:48.523Z,5.90
2019-05-11T23:35:18.751Z,6.20
2019-05-11T23:37:49.408Z,5.07
2019-05-11T23:40:18.252Z,5.23
2019-05-11T23:42:48.966Z,4.83
2019-05-11T23:45:18.784Z,5.60
2019-05-11T23:47:48.720Z,5.30
2019-05-11T23:50:18.893Z,5.00
2019-05-11T23:52:50.133Z,4.27
2019-05-11T23:55:18.980Z,3.83
2019-05-11T23:57:48.566Z,4.90
